Time;durP1;ratioP1;P1;durP2;ratioP2;P2;SDS_P1;SDS_P2;PMS_P1;PMS_P2;Temp;Humidity;BMP_temperature;BMP_pressure;BME280_temperature;BME280_humidity;BME280_pressure;Samples;Min_cycle;Max_cycle;Signal;HPM_P1;HPM_P2
2023/01/18 00:00:00;;;;;;;11.85;10.81;;;;;;;4.91;61.65;101051.84;454063;117;922580;-74
2023/01/18 00:01:06;;;;;;;12.47;11.22;;;;;;;4.92;61.53;101050.84;454381;114;922637;-75
2023/01/18 00:02:09;;;;;;;11.39;10.37;;;;;;;4.92;61.47;101047.29;456058;114;923018;-74
2023/01/18 00:03:13;;;;;;;11.73;10.77;;;;;;;4.91;61.55;101059.10;459266;114;923157;-75
2023/01/18 00:04:16;;;;;;;11.32;10.14;;;;;;;4.90;61.45;101043.92;462708;114;922449;-74
2023/01/18 00:05:25;;;;;;;12.17;10.46;;;;;;;4.90;61.49;101055.59;460706;114;923071;-75
2023/01/18 00:06:26;;;;;;;11.77;10.76;;;;;;;4.90;61.42;101044.78;454195;116;922540;-74
2023/01/18 00:07:30;;;;;;;11.19;10.32;;;;;;;4.90;61.38;101050.18;462034;114;923066;-74
2023/01/18 00:08:34;;;;;;;11.19;10.16;;;;;;;4.91;61.48;101056.40;462687;114;922972;-74
2023/01/18 00:09:38;;;;;;;11.93;10.79;;;;;;;4.92;61.43;101063.50;462500;114;922549;-74
2023/01/18 00:10:42;;;;;;;12.13;10.98;;;;;;;4.92;61.27;101063.50;462127;114;930339;-75
2023/01/18 00:11:47;;;;;;;11.82;10.81;;;;;;;4.92;61.19;101063.50;451659;117;922526;-74
2023/01/18 00:12:50;;;;;;;11.14;10.24;;;;;;;4.90;61.27;101063.69;453193;114;922402;-74
2023/01/18 00:13:54;;;;;;;13.28;11.28;;;;;;;4.90;61.20;101074.50;451799;117;922776;-74
2023/01/18 00:14:57;;;;;;;12.40;11.22;;;;;;;4.91;61.23;101067.20;455656;114;922796;-73
2023/01/18 00:16:05;;;;;;;11.63;10.66;;;;;;;4.91;61.13;101069.91;452014;114;922557;-73
2023/01/18 00:17:08;;;;;;;11.57;10.43;;;;;;;4.90;61.16;101079.05;454847;114;923151;-75
2023/01/18 00:18:12;;;;;;;11.37;10.35;;;;;;;4.90;61.15;101081.75;453191;114;922594;-75
2023/01/18 00:19:15;;;;;;;11.75;10.83;;;;;;;4.90;61.05;101084.45;460270;114;922453;-74
2023/01/18 00:20:21;;;;;;;11.67;10.54;;;;;;;4.89;61.06;101083.61;457460;114;922511;-74
2023/01/18 00:21:25;;;;;;;11.61;10.60;;;;;;;4.89;61.04;101090.86;454515;116;922491;-75
2023/01/18 00:22:28;;;;;;;11.58;10.49;;;;;;;4.89;60.96;101093.56;454527;116;923307;-75
2023/01/18 00:23:33;;;;;;;11.24;10.23;;;;;;;4.88;60.88;101091.88;455058;114;922476;-74
2023/01/18 00:24:36;;;;;;;11.45;10.55;;;;;;;4.85;60.81;101084.92;462744;114;922835;-74
2023/01/18 00:25:39;;;;;;;11.28;10.41;;;;;;;4.83;60.94;101081.56;460283;114;923026;-74
2023/01/18 00:26:42;;;;;;;11.62;10.61;;;;;;;4.82;60.92;101085.27;458007;114;923070;-74
2023/01/18 00:27:51;;;;;;;15.56;10.73;;;;;;;4.82;60.97;101084.42;462787;114;922594;-73
2023/01/18 00:28:56;;;;;;;12.41;11.19;;;;;;;4.80;61.07;101079.17;457656;114;922936;-74
2023/01/18 00:29:59;;;;;;;12.07;10.93;;;;;;;4.80;60.99;101072.92;453589;114;923118;-73
2023/01/18 00:31:17;;;;;;;11.80;10.66;;;;;;;4.79;61.04;101068.56;457890;114;922500;-74
2023/01/18 00:32:20;;;;;;;11.96;10.98;;;;;;;4.78;61.06;101066.86;454619;116;922865;-73
2023/01/18 00:33:24;;;;;;;11.65;10.48;;;;;;;4.79;61.09;101082.06;454903;114;922373;-74
2023/01/18 00:34:27;;;;;;;12.50;11.36;;;;;;;4.78;60.96;101080.38;454869;114;922587;-73
2023/01/18 00:35:30;;;;;;;11.99;10.94;;;;;;;4.77;61.01;101081.37;454847;116;922608;-74
2023/01/18 00:36:34;;;;;;;11.19;10.27;;;;;;;4.76;60.99;101085.93;455959;114;922523;-75
2023/01/18 00:37:37;;;;;;;12.08;10.89;;;;;;;4.77;61.05;101086.78;454753;116;930048;-75
2023/01/18 00:38:41;;;;;;;11.91;10.92;;;;;;;4.76;61.07;101080.53;457390;114;922532;-74
2023/01/18 00:39:44;;;;;;;12.17;10.93;;;;;;;4.77;61.02;101078.67;462736;114;922915;-74
2023/01/18 00:40:48;;;;;;;11.98;10.97;;;;;;;4.77;61.10;101079.52;462640;114;930410;-74
2023/01/18 00:44:34;;;;;;;11.29;10.31;;;;;;;4.82;61.17;101068.22;462687;114;922520;-74
2023/01/18 00:45:39;;;;;;;11.74;10.72;;;;;;;4.82;61.18;101068.22;462837;114;923009;-74
2023/01/18 00:46:42;;;;;;;12.34;11.23;;;;;;;4.83;61.15;101081.56;462651;114;922732;-74
2023/01/18 00:47:45;;;;;;;11.66;10.67;;;;;;;4.82;60.98;101089.83;462794;114;922601;-74
2023/01/18 00:48:50;;;;;;;11.83;10.81;;;;;;;4.82;60.95;101077.16;461441;114;922631;-74
2023/01/18 00:49:53;;;;;;;12.29;11.24;;;;;;;4.82;60.96;101076.32;460673;114;922584;-74
2023/01/18 00:50:56;;;;;;;12.03;10.93;;;;;;;4.83;61.11;101056.41;462822;114;922908;-74
2023/01/18 00:51:59;;;;;;;15.67;11.93;;;;;;;4.83;61.06;101048.30;462823;114;922681;-74
2023/01/18 00:53:03;;;;;;;12.06;11.06;;;;;;;4.85;61.13;101057.91;462652;114;922564;-74
2023/01/18 00:54:06;;;;;;;11.78;10.78;;;;;;;4.87;61.00;101063.16;462870;114;922538;-74
2023/01/18 00:55:11;;;;;;;12.68;11.40;;;;;;;4.87;61.02;101061.30;462369;114;922516;-74
2023/01/18 00:56:16;;;;;;;11.97;10.81;;;;;;;4.87;60.84;101063.16;462672;114;922501;-74
2023/01/18 00:57:20;;;;;;;12.59;11.44;;;;;;;4.84;60.94;101058.95;462616;114;922643;-74
2023/01/18 00:58:23;;;;;;;13.13;10.97;;;;;;;4.85;60.87;101062.50;462621;114;922606;-74
2023/01/18 00:59:26;;;;;;;12.94;11.71;;;;;;;4.84;60.79;101055.40;462738;114;922488;-74
2023/01/18 01:00:31;;;;;;;11.97;10.88;;;;;;;4.84;60.89;101064.34;462626;114;922722;-74
2023/01/18 01:01:35;;;;;;;12.13;11.03;;;;;;;4.84;60.82;101071.61;461961;114;922725;-74
2023/01/18 01:02:43;;;;;;;12.01;11.02;;;;;;;4.85;60.96;101065.20;462220;114;922914;-74
2023/01/18 01:06:44;;;;;;;12.67;11.45;;;;;;;4.89;60.89;101077.36;457755;114;922644;-74
2023/01/18 01:07:48;;;;;;;12.55;11.41;;;;;;;4.87;60.76;101088.32;461458;114;922575;-74
2023/01/18 01:08:52;;;;;;;12.61;11.34;;;;;;;4.85;60.80;101084.92;462554;114;922540;-74
2023/01/18 01:09:56;;;;;;;13.33;11.74;;;;;;;4.85;60.92;101086.81;462686;114;922721;-74
2023/01/18 01:11:06;;;;;;;11.91;10.78;;;;;;;4.85;60.87;101093.03;462688;114;922566;-74
2023/01/18 01:26:02;;;;;;;12.07;10.74;;;;;;;4.88;60.88;101078.36;435842;120;922575;-74
2023/01/18 01:27:06;;;;;;;12.28;11.14;;;;;;;4.87;60.75;101077.52;437655;118;922704;-74
2023/01/18 01:28:09;;;;;;;13.12;11.54;;;;;;;4.88;60.76;101086.47;445977;118;923156;-74
2023/01/18 01:29:12;;;;;;;11.76;10.82;;;;;;;4.87;60.61;101084.77;444499;119;922609;-74
2023/01/18 01:30:16;;;;;;;12.36;11.16;;;;;;;4.87;60.63;101087.47;439592;119;922498;-74
2023/01/18 01:31:19;;;;;;;13.29;12.14;;;;;;;4.87;60.70;101082.06;437827;119;922526;-75
2023/01/18 01:32:23;;;;;;;12.89;11.72;;;;;;;4.88;60.79;101086.47;448408;117;922460;-74
2023/01/18 01:33:29;;;;;;;13.71;11.61;;;;;;;4.89;60.67;101085.46;451037;117;930433;-74
2023/01/18 01:34:32;;;;;;;12.08;11.03;;;;;;;4.89;60.54;101088.16;437738;119;922598;-74
2023/01/18 01:35:35;;;;;;;13.11;11.99;;;;;;;4.88;60.45;101094.58;437451;121;922526;-74
2023/01/18 01:36:38;;;;;;;11.89;10.81;;;;;;;4.86;60.42;101085.78;443116;118;922552;-75
2023/01/18 01:37:42;;;;;;;11.59;10.53;;;;;;;4.85;60.33;101098.44;451340;117;922577;-74
2023/01/18 01:38:45;;;;;;;12.41;11.33;;;;;;;4.85;60.31;101094.91;439807;120;922538;-74
2023/01/18 01:39:48;;;;;;;12.41;11.16;;;;;;;4.84;60.44;101095.92;447378;118;922914;-74
2023/01/18 01:41:01;;;;;;;14.43;11.73;;;;;;;4.85;60.46;101094.91;447326;118;922509;-74
2023/01/18 01:42:04;;;;;;;13.14;10.33;;;;;;;4.85;60.46;101093.03;447101;118;922616;-75
2023/01/18 01:43:12;;;;;;;12.36;11.26;;;;;;;4.87;60.57;101088.32;447216;118;922852;-74
2023/01/18 01:44:26;;;;;;;12.91;10.98;;;;;;;4.88;60.62;101083.77;443880;118;923450;-74
2023/01/18 01:45:31;;;;;;;12.71;11.42;;;;;;;4.89;60.70;101083.61;443584;119;922512;-74
2023/01/18 01:46:46;;;;;;;12.14;10.88;;;;;;;4.91;60.73;101078.02;443410;118;922928;-74
2023/01/18 01:47:51;;;;;;;12.21;10.79;;;;;;;4.93;60.75;101081.41;446612;118;923006;-74
2023/01/18 01:49:03;;;;;;;11.91;10.74;;;;;;;4.94;60.64;101072.30;450219;117;922524;-73
2023/01/18 01:50:34;;;;;;;11.39;10.43;;;;;;;4.94;60.62;101081.25;447750;117;930569;-74
2023/01/18 01:51:40;;;;;;;12.41;11.33;;;;;;;4.95;60.54;101074.84;440290;120;922719;-75
2023/01/18 01:52:46;;;;;;;12.65;11.15;;;;;;;4.96;60.58;101078.39;449489;117;930330;-74
2023/01/18 01:53:50;;;;;;;14.84;10.89;;;;;;;4.96;60.67;101075.69;453368;117;922543;-74
2023/01/18 01:55:03;;;;;;;12.06;11.06;;;;;;;4.96;60.57;101073.80;452217;117;922449;-75
2023/01/18 01:56:14;;;;;;;12.01;10.81;;;;;;;5.07;60.54;101069.96;477188;110;947146;-74
2023/01/18 01:57:21;;;;;;;11.77;10.71;;;;;;;4.96;60.45;101071.10;466251;112;922871;-75
2023/01/18 01:58:28;;;;;;;11.62;10.54;;;;;;;4.96;60.46;101067.58;459825;114;922462;-75
2023/01/18 01:59:34;;;;;;;11.46;10.51;;;;;;;4.96;60.37;101075.69;459371;114;922594;-74
2023/01/18 02:00:37;;;;;;;11.86;10.72;;;;;;;4.94;60.33;101069.59;458668;114;922534;-75
2023/01/18 02:01:42;;;;;;;12.60;11.51;;;;;;;4.94;60.36;101073.14;457596;116;922619;-74
2023/01/18 02:02:49;;;;;;;12.91;11.64;;;;;;;4.93;60.32;101068.75;458774;114;922512;-74
2023/01/18 02:03:54;;;;;;;13.54;11.72;;;;;;;4.94;60.33;101072.30;449511;118;922501;-75
2023/01/18 02:04:59;;;;;;;13.15;11.66;;;;;;;4.93;60.38;101065.20;452087;114;922537;-75
2023/01/18 02:06:06;;;;;;;12.63;11.48;;;;;;;4.93;60.33;101067.90;450237;116;922632;-74
2023/01/18 02:07:10;;;;;;;12.72;11.49;;;;;;;4.93;60.43;101063.34;460754;114;922500;-74
2023/01/18 02:08:21;;;;;;;12.41;11.32;;;;;;;4.94;60.34;101066.89;461058;114;923239;-75
2023/01/18 02:09:22;;;;;;;13.74;12.54;;;;;;;4.95;60.39;101071.30;456978;115;922640;-74
2023/01/18 02:10:24;;;;;;;12.07;10.98;;;;;;;4.95;60.47;101076.70;457402;116;922986;-74
2023/01/18 02:11:28;;;;;;;12.19;11.14;;;;;;;4.97;60.40;101071.95;456441;116;922603;-74
2023/01/18 02:12:32;;;;;;;11.69;10.69;;;;;;;4.97;60.44;101074.65;444594;118;922322;-75
2023/01/18 02:13:36;;;;;;;12.72;11.49;;;;;;;4.97;60.39;101071.95;454188;116;923183;-75
2023/01/18 02:14:40;;;;;;;12.66;11.50;;;;;;;4.96;60.37;101079.20;454791;116;930275;-75
2023/01/18 02:15:53;;;;;;;12.01;11.01;;;;;;;4.98;60.43;101081.75;455826;116;922914;-74
2023/01/18 02:17:09;;;;;;;12.28;11.02;;;;;;;4.97;60.43;101086.31;457451;116;923347;-74
2023/01/18 02:18:28;;;;;;;12.38;11.28;;;;;;;4.99;60.52;101089.70;450207;116;922759;-75
2023/01/18 02:20:05;;;;;;;12.01;10.93;;;;;;;5.01;60.52;101084.14;449879;116;922549;-75
2023/01/18 02:21:12;;;;;;;10.51;9.61;;;;;;;5.02;60.59;101083.95;424312;124;922718;-76
2023/01/18 02:22:40;;;;;;;11.11;10.16;;;;;;;5.03;60.65;101077.54;436925;117;922629;-74
2023/01/18 02:24:02;;;;;;;13.03;11.82;;;;;;;5.04;60.82;101078.39;450227;118;922450;-72
2023/01/18 02:25:31;;;;;;;12.31;11.11;;;;;;;5.07;60.78;101067.26;453221;116;922265;-72
2023/01/18 02:26:50;;;;;;;11.85;10.69;;;;;;;5.09;60.94;101072.47;446141;117;922946;-73
2023/01/18 02:28:18;;;;;;;12.91;11.84;;;;;;;5.08;60.83;101057.27;450255;117;922655;-75
2023/01/18 02:29:41;;;;;;;12.47;11.29;;;;;;;5.09;60.85;101048.15;450001;118;922202;-74
2023/01/18 02:30:48;;;;;;;13.44;12.24;;;;;;;5.09;60.97;101057.11;449480;117;922520;-75
2023/01/18 02:32:12;;;;;;;13.11;11.99;;;;;;;5.09;60.87;101049.00;452727;116;922491;-76
2023/01/18 02:33:18;;;;;;;13.21;11.86;;;;;;;5.10;60.78;101056.10;444928;118;922638;-76
2023/01/18 02:34:31;;;;;;;13.49;12.23;;;;;;;5.09;60.90;101057.11;454728;116;922711;-75
2023/01/18 02:35:52;;;;;;;13.17;11.97;;;;;;;5.09;60.90;101059.81;453916;116;922928;-74
2023/01/18 02:37:05;;;;;;;12.83;11.47;;;;;;;5.10;60.75;101066.06;454910;116;922598;-74
2023/01/18 02:38:13;;;;;;;12.70;11.47;;;;;;;5.10;60.73;101077.72;455084;116;923017;-73
2023/01/18 02:39:30;;;;;;;14.99;11.72;;;;;;;5.09;60.55;101076.02;455207;116;923102;-74
2023/01/18 02:40:36;;;;;;;14.53;11.80;;;;;;;5.06;60.44;101076.38;452994;117;922514;-74
2023/01/18 02:47:28;;;;;;;12.37;11.17;;;;;;;5.01;60.84;101081.44;461689;115;922954;-74
2023/01/18 02:48:34;;;;;;;13.36;12.14;;;;;;;5.02;60.98;101077.70;461795;115;923172;-74
2023/01/18 02:49:38;;;;;;;12.83;11.72;;;;;;;5.02;60.87;101075.84;461716;115;922468;-75
2023/01/18 02:50:41;;;;;;;13.09;11.90;;;;;;;5.01;60.72;101079.58;461892;115;922813;-75
2023/01/18 02:51:44;;;;;;;12.57;11.57;;;;;;;5.01;60.73;101087.69;459609;115;922431;-76
2023/01/18 02:52:52;;;;;;;13.04;11.87;;;;;;;5.02;60.75;101088.50;454361;116;922625;-74
2023/01/18 02:53:53;;;;;;;13.73;12.18;;;;;;;5.01;60.72;101090.39;453825;116;922535;-76
2023/01/18 02:54:56;;;;;;;13.09;11.96;;;;;;;5.00;60.60;101083.29;454435;116;922949;-76
2023/01/18 02:56:06;;;;;;;12.78;11.59;;;;;;;5.00;60.53;101083.29;457257;115;923076;-75
2023/01/18 02:57:13;;;;;;;14.93;12.88;;;;;;;5.00;60.67;101075.19;456559;115;930325;-75
2023/01/18 02:58:20;;;;;;;12.88;11.76;;;;;;;5.02;60.71;101080.40;456535;116;922865;-74
2023/01/18 02:59:33;;;;;;;13.74;12.48;;;;;;;5.03;60.92;101072.13;456577;116;922536;-75
2023/01/18 03:00:40;;;;;;;13.46;12.14;;;;;;;5.04;60.85;101071.13;456574;115;922375;-75
2023/01/18 03:01:49;;;;;;;13.75;12.55;;;;;;;5.07;60.80;101064.56;456578;116;922472;-74
2023/01/18 03:02:54;;;;;;;12.87;11.67;;;;;;;5.07;60.74;101069.96;456553;116;922960;-75
2023/01/18 03:04:05;;;;;;;14.41;12.93;;;;;;;5.07;60.60;101071.81;456568;116;922444;-75
2023/01/18 03:05:10;;;;;;;12.41;11.33;;;;;;;5.06;60.50;101080.93;456468;116;922559;-76
2023/01/18 03:06:14;;;;;;;13.32;12.10;;;;;;;5.04;60.56;101076.53;450146;116;922582;-74
2023/01/18 03:07:24;;;;;;;13.68;12.01;;;;;;;5.03;60.48;101082.09;449047;116;922869;-74
2023/01/18 03:08:43;;;;;;;14.13;12.66;;;;;;;5.02;60.48;101078.55;448768;116;923028;-75
2023/01/18 03:09:46;;;;;;;13.26;11.84;;;;;;;5.02;60.67;101078.55;448770;116;922987;-74
2023/01/18 03:10:56;;;;;;;13.91;12.65;;;;;;;5.03;60.70;101079.39;448777;118;923015;-74
2023/01/18 03:12:22;;;;;;;13.61;12.28;;;;;;;5.02;60.74;101075.84;448338;116;922860;-74
2023/01/18 03:14:03;;;;;;;13.43;12.07;;;;;;;5.04;60.65;101081.94;448698;118;922987;-75
2023/01/18 03:15:21;;;;;;;13.49;12.09;;;;;;;5.05;60.76;101082.78;448087;118;922537;-75
2023/01/18 03:16:29;;;;;;;13.66;12.37;;;;;;;5.05;60.88;101082.78;448686;117;923096;-74
2023/01/18 03:17:44;;;;;;;13.95;12.72;;;;;;;5.04;60.91;101087.34;448593;118;922615;-74
2023/01/18 03:19:00;;;;;;;13.12;11.90;;;;;;;5.06;60.75;101089.04;448677;118;922556;-74
2023/01/18 03:20:07;;;;;;;13.26;12.06;;;;;;;5.04;60.77;101092.75;448772;118;922550;-74
2023/01/18 03:21:11;;;;;;;13.16;12.01;;;;;;;5.05;60.66;101096.30;452473;116;922506;-73
2023/01/18 03:22:14;;;;;;;12.93;11.76;;;;;;;5.06;60.68;101099.85;448968;116;923517;-74
2023/01/18 03:23:39;;;;;;;14.34;12.92;;;;;;;5.06;60.68;101097.14;448815;116;930360;-74
2023/01/18 03:24:44;;;;;;;13.12;11.88;;;;;;;5.06;60.64;101097.14;448637;118;930240;-74
2023/01/18 03:25:50;;;;;;;14.09;12.75;;;;;;;5.06;60.62;101099.85;449923;116;922940;-73
2023/01/18 03:26:55;;;;;;;13.14;11.94;;;;;;;5.04;60.55;101090.05;440040;120;922854;-74
2023/01/18 03:33:50;;;;;;;13.43;12.23;;;;;;;5.08;60.72;101097.80;437693;120;922665;-74
2023/01/18 03:35:12;;;;;;;14.53;13.30;;;;;;;5.07;60.66;101091.58;441522;120;922516;-74
2023/01/18 03:36:21;;;;;;;14.08;12.74;;;;;;;5.08;60.74;101095.10;440679;120;922554;-74
2023/01/18 03:37:36;;;;;;;13.32;11.96;;;;;;;5.07;60.64;101094.28;441414;120;923122;-74
2023/01/18 03:38:41;;;;;;;14.77;13.22;;;;;;;5.07;60.79;101096.98;441380;120;922539;-74
2023/01/18 03:39:48;;;;;;;14.23;12.98;;;;;;;5.09;60.73;101102.20;441546;120;922872;-74
2023/01/18 03:40:51;;;;;;;13.13;11.99;;;;;;;5.10;60.86;101095.80;438549;120;922713;-74
2023/01/18 03:42:04;;;;;;;13.68;12.38;;;;;;;5.11;60.86;101103.75;440291;120;922606;-73
2023/01/18 03:43:16;;;;;;;13.57;12.36;;;;;;;5.13;60.84;101098.18;443186;118;922513;-73
2023/01/18 03:44:22;;;;;;;14.99;13.31;;;;;;;5.14;60.77;101097.98;442272;120;922941;-73
2023/01/18 03:45:36;;;;;;;13.64;12.49;;;;;;;5.15;60.58;101106.95;439950;120;922978;-74
2023/01/18 03:46:40;;;;;;;14.23;12.87;;;;;;;5.15;60.66;101110.50;435769;120;923047;-75
2023/01/18 03:47:43;;;;;;;14.09;12.70;;;;;;;5.16;60.63;101109.49;441942;120;922567;-75
2023/01/18 03:48:46;;;;;;;13.94;12.69;;;;;;;5.17;60.52;101110.34;441797;120;922652;-73
2023/01/18 03:49:50;;;;;;;13.53;12.33;;;;;;;5.17;60.63;101110.34;442068;120;922560;-73
2023/01/18 03:50:59;;;;;;;14.63;13.40;;;;;;;5.19;60.54;101116.41;440035;120;922688;-74
2023/01/18 03:52:15;;;;;;;16.12;13.04;;;;;;;5.19;60.45;101114.55;434533;122;923202;-74
2023/01/18 03:53:31;;;;;;;14.99;13.63;;;;;;;5.20;60.41;101110.84;434619;120;922947;-74
2023/01/18 03:54:54;;;;;;;14.13;12.94;;;;;;;5.20;60.40;101113.55;434538;122;922558;-75
2023/01/18 03:56:07;;;;;;;13.74;12.53;;;;;;;5.22;60.50;101108.83;437393;120;922655;-74
2023/01/18 03:57:20;;;;;;;13.08;11.90;;;;;;;5.22;60.39;101107.98;434512;120;923014;-74
2023/01/18 03:58:27;;;;;;;14.69;13.37;;;;;;;5.21;60.42;101107.13;439984;120;922554;-74
2023/01/18 03:59:36;;;;;;;13.88;12.68;;;;;;;5.21;60.43;101107.13;442221;118;922601;-75
2023/01/18 04:00:40;;;;;;;14.04;12.81;;;;;;;5.21;60.51;101109.83;442581;118;922981;-74
2023/01/18 04:01:46;;;;;;;15.05;13.68;;;;;;;5.23;60.47;101107.82;441928;120;922518;-74
2023/01/18 04:02:49;;;;;;;14.47;13.25;;;;;;;5.23;60.27;101099.71;441575;120;930377;-74
2023/01/18 04:03:52;;;;;;;14.86;13.58;;;;;;;5.22;60.19;101111.53;441794;120;922397;-74
2023/01/18 04:05:02;;;;;;;14.50;13.28;;;;;;;5.22;60.08;101113.38;439816;120;922638;-74
2023/01/18 04:06:05;;;;;;;15.58;14.28;;;;;;;5.19;60.14;101106.44;434543;122;922581;-74
2023/01/18 04:07:09;;;;;;;14.35;12.96;;;;;;;5.20;60.04;101101.88;438092;120;922522;-73
2023/01/18 04:08:13;;;;;;;14.47;13.28;;;;;;;5.20;60.09;101101.88;442010;120;922670;-74
2023/01/18 04:09:16;;;;;;;15.18;13.75;;;;;;;5.20;60.16;101101.88;437957;120;922524;-74
2023/01/18 04:10:19;;;;;;;14.43;13.22;;;;;;;5.20;60.23;101107.29;434614;122;923455;-74
2023/01/18 04:11:23;;;;;;;14.18;13.00;;;;;;;5.21;60.35;101112.54;434797;120;922683;-74
2023/01/18 04:12:26;;;;;;;14.09;12.63;;;;;;;5.22;60.24;101116.94;434691;122;922558;-74
2023/01/18 04:13:30;;;;;;;14.36;13.03;;;;;;;5.23;60.18;101118.63;434732;120;922587;-74
2023/01/18 04:14:33;;;;;;;15.43;12.36;;;;;;;5.23;60.14;101120.48;434599;122;930281;-74
2023/01/18 04:15:36;;;;;;;14.16;12.98;;;;;;;5.25;60.19;101123.85;434766;120;930304;-74
2023/01/18 04:16:39;;;;;;;13.99;12.79;;;;;;;5.27;60.14;101127.25;440211;118;922860;-73
2023/01/18 04:17:43;;;;;;;13.21;11.91;;;;;;;5.26;60.12;101126.39;442463;118;930308;-75
2023/01/18 04:18:46;;;;;;;13.35;12.23;;;;;;;5.27;60.17;101122.69;444864;118;922440;-75
2023/01/18 04:19:49;;;;;;;14.47;13.29;;;;;;;5.28;60.11;101123.53;442439;120;922486;-75
2023/01/18 04:20:55;;;;;;;14.39;13.19;;;;;;;5.28;60.16;101129.79;442434;120;922543;-75
2023/01/18 04:21:57;;;;;;;12.97;11.96;;;;;;;5.28;60.21;101124.38;442992;118;923107;-74
2023/01/18 04:23:01;;;;;;;14.47;12.62;;;;;;;5.30;60.21;101116.08;442427;120;922623;-75
2023/01/18 04:24:05;;;;;;;13.56;12.25;;;;;;;5.30;60.22;101118.78;442363;120;922997;-75
2023/01/18 04:25:08;;;;;;;14.05;12.42;;;;;;;5.31;60.24;101118.63;442312;120;923078;-75
2023/01/18 04:26:14;;;;;;;13.53;12.28;;;;;;;5.32;60.22;101123.03;442960;118;930355;-74
2023/01/18 04:27:16;;;;;;;13.97;12.74;;;;;;;5.34;60.29;101115.61;442174;120;930308;-75
2023/01/18 04:28:26;;;;;;;13.78;12.39;;;;;;;5.34;60.21;101122.87;445402;118;922550;-75
2023/01/18 04:29:25;;;;;;;14.22;12.92;;;;;;;5.34;60.10;101112.90;433645;122;922924;-75
2023/01/18 04:30:28;;;;;;;13.83;12.76;;;;;;;5.34;60.13;101118.31;448578;116;922742;-75
2023/01/18 04:31:32;;;;;;;14.13;12.91;;;;;;;5.33;59.99;101122.02;456549;116;922541;-75
2023/01/18 04:32:35;;;;;;;13.50;12.38;;;;;;;5.35;60.05;101125.37;456634;115;922537;-75
2023/01/18 04:33:38;;;;;;;20.46;14.86;;;;;;;5.34;59.96;101123.72;456575;116;922958;-73
2023/01/18 04:34:41;;;;;;;13.49;12.28;;;;;;;5.35;60.04;101129.94;455307;115;922597;-75
2023/01/18 04:35:44;;;;;;;13.25;12.05;;;;;;;5.35;60.06;101130.79;449816;116;922573;-75
2023/01/18 04:36:48;;;;;;;13.37;12.28;;;;;;;5.35;60.11;101128.08;448879;117;922607;-75
2023/01/18 04:37:52;;;;;;;14.19;12.85;;;;;;;5.37;59.97;101127.92;448799;118;922633;-74
2023/01/18 04:38:55;;;;;;;13.45;12.18;;;;;;;5.37;59.95;101131.48;448764;117;930338;-74
2023/01/18 04:39:58;;;;;;;13.21;11.61;;;;;;;5.37;59.95;101131.48;448900;117;922633;-75
2023/01/18 04:41:04;;;;;;;14.07;12.84;;;;;;;5.39;59.92;101131.32;449921;116;923055;-75
2023/01/18 04:42:07;;;;;;;13.68;12.49;;;;;;;5.38;59.97;101129.63;448567;118;930328;-75
2023/01/18 04:43:11;;;;;;;14.38;13.11;;;;;;;5.39;59.84;101121.35;451394;116;922720;-75
2023/01/18 04:44:15;;;;;;;13.73;12.64;;;;;;;5.38;59.81;101111.55;449618;116;922553;-74
2023/01/18 04:45:19;;;;;;;14.69;13.49;;;;;;;5.37;59.83;101117.11;448951;116;923464;-75
2023/01/18 04:46:22;;;;;;;13.74;12.61;;;;;;;5.38;59.86;101122.36;448938;116;923420;-73
2023/01/18 04:47:27;;;;;;;13.96;12.63;;;;;;;5.38;59.90;101124.21;448924;118;922598;-73
2023/01/18 04:48:31;;;;;;;13.91;12.90;;;;;;;5.37;60.02;101127.92;448659;118;922370;-74
2023/01/18 04:49:34;;;;;;;14.24;12.91;;;;;;;5.38;60.00;101132.33;448913;118;922839;-73
2023/01/18 04:50:38;;;;;;;15.02;13.68;;;;;;;5.37;59.93;101125.22;448862;117;922503;-73
2023/01/18 04:51:42;;;;;;;15.12;13.44;;;;;;;5.37;60.01;101134.19;448797;118;923047;-74
2023/01/18 04:52:46;;;;;;;15.12;13.12;;;;;;;5.36;59.88;101148.70;448697;118;922533;-74
2023/01/18 04:53:50;;;;;;;15.24;13.69;;;;;;;5.35;59.79;101147.02;448858;118;930303;-74
2023/01/18 04:54:53;;;;;;;14.43;13.15;;;;;;;5.34;59.79;101156.16;448777;118;922461;-74
2023/01/18 04:55:57;;;;;;;14.81;13.43;;;;;;;5.32;59.66;101144.66;451041;116;922627;-75
2023/01/18 04:57:00;;;;;;;15.32;14.04;;;;;;;5.31;59.63;101152.92;452226;117;923058;-73
2023/01/18 04:58:03;;;;;;;15.58;13.32;;;;;;;5.29;59.63;101152.27;453798;117;922489;-73
2023/01/18 04:59:07;;;;;;;13.84;12.73;;;;;;;5.26;59.69;101152.58;453810;117;923106;-71
2023/01/18 05:00:16;;;;;;;13.89;12.64;;;;;;;5.25;59.77;101151.73;455081;116;922523;-73
2023/01/18 05:01:19;;;;;;;13.72;12.64;;;;;;;5.25;59.79;101154.44;455612;116;922511;-73
2023/01/18 05:02:22;;;;;;;13.91;12.68;;;;;;;5.25;59.99;101154.44;454412;116;922652;-73
2023/01/18 05:03:26;;;;;;;14.42;13.23;;;;;;;5.24;59.90;101150.03;453730;116;930362;-74
2023/01/18 05:04:29;;;;;;;13.62;12.53;;;;;;;5.24;59.93;101162.70;445607;118;922602;-73
2023/01/18 05:05:32;;;;;;;14.18;13.08;;;;;;;5.23;59.93;101164.59;457885;115;922582;-74
2023/01/18 05:06:35;;;;;;;15.16;12.85;;;;;;;5.24;59.91;101158.14;457470;115;922460;-75
2023/01/18 05:07:39;;;;;;;15.11;13.51;;;;;;;5.24;59.96;101163.55;456329;116;923043;-75
2023/01/18 05:08:42;;;;;;;14.37;13.14;;;;;;;5.24;60.06;101165.41;455765;116;922566;-73
2023/01/18 05:09:45;;;;;;;14.07;12.98;;;;;;;5.25;60.12;101167.11;455700;116;922591;-73
2023/01/18 05:10:49;;;;;;;14.74;13.37;;;;;;;5.24;60.05;101174.37;455809;116;922576;-73
2023/01/18 05:11:52;;;;;;;13.79;12.57;;;;;;;5.22;59.87;101172.86;455406;116;922639;-74
2023/01/18 05:12:55;;;;;;;14.82;13.30;;;;;;;5.20;59.83;101172.17;449649;117;922838;-74
2023/01/18 05:13:59;;;;;;;14.13;12.84;;;;;;;5.18;59.81;101174.21;451156;116;922499;-71
2023/01/18 05:15:03;;;;;;;14.63;13.35;;;;;;;5.17;59.92;101170.66;455314;116;922604;-73
2023/01/18 05:16:09;;;;;;;14.95;13.52;;;;;;;5.17;59.97;101169.81;454629;116;922897;-72
2023/01/18 05:17:12;;;;;;;13.99;12.72;;;;;;;5.16;60.00;101168.96;453062;117;922947;-73
2023/01/18 05:18:15;;;;;;;13.83;12.71;;;;;;;5.16;60.06;101174.37;453369;117;922614;-73
2023/01/18 05:19:19;;;;;;;14.75;13.38;;;;;;;5.17;60.15;101167.11;453326;117;922863;-73
2023/01/18 05:20:22;;;;;;;14.64;13.26;;;;;;;5.15;60.13;101172.67;454510;116;923051;-73
2023/01/18 05:21:25;;;;;;;14.76;13.29;;;;;;;5.14;60.17;101176.37;455322;116;925536;-73
2023/01/18 05:22:28;;;;;;;14.74;13.55;;;;;;;5.14;60.34;101181.78;455307;116;922549;-73
2023/01/18 05:23:32;;;;;;;14.39;12.98;;;;;;;5.15;60.28;101179.93;455248;116;922593;-74
2023/01/18 05:24:35;;;;;;;14.81;13.28;;;;;;;5.15;60.45;101178.08;456252;116;922571;-74
2023/01/18 05:25:38;;;;;;;15.78;14.31;;;;;;;5.15;60.36;101178.08;456112;116;922905;-73
2023/01/18 05:26:41;;;;;;;14.60;13.14;;;;;;;5.15;60.29;101174.52;456217;116;922707;-73
2023/01/18 05:27:45;;;;;;;13.99;12.89;;;;;;;5.14;60.42;101176.37;456177;115;922524;-73
2023/01/18 05:28:49;;;;;;;14.28;12.98;;;;;;;5.14;60.31;101183.64;456199;116;922626;-73
2023/01/18 05:29:52;;;;;;;14.45;13.09;;;;;;;5.13;60.43;101177.38;456057;116;922470;-74
2023/01/18 05:30:56;;;;;;;13.95;12.77;;;;;;;5.13;60.34;101180.09;456089;116;922715;-74
2023/01/18 05:31:59;;;;;;;14.56;13.29;;;;;;;5.14;60.52;101178.23;455950;116;923104;-73
2023/01/18 05:33:02;;;;;;;14.09;12.83;;;;;;;5.14;60.48;101181.78;453719;117;922474;-74